createdAt,value
2018-09-22T00:02:11.431Z,72.36
2018-09-22T00:04:40.433Z,73.45
2018-09-22T00:07:09.785Z,72.74
2018-09-22T00:09:38.643Z,72.81
2018-09-22T00:12:07.532Z,72.67
2018-09-22T00:14:36.557Z,73.08
2018-09-22T00:17:05.627Z,72.61
2018-09-22T00:19:34.777Z,72.49
2018-09-22T00:22:03.964Z,73.04
2018-09-22T00:24:32.756Z,72.89
2018-09-22T00:27:01.778Z,73.87
2018-09-22T00:29:30.988Z,73.42
2018-09-22T00:31:59.852Z,73.85
2018-09-22T00:34:28.899Z,74.46
2018-09-22T00:36:58.244Z,74.13
2018-09-22T00:39:27.197Z,73.94
2018-09-22T00:41:56.994Z,73.72
2018-09-22T00:44:26.052Z,74.62
2018-09-22T00:46:55.093Z,74.60
2018-09-22T00:49:24.076Z,74.95
2018-09-22T00:53:22.766Z,75.11
2018-09-22T00:55:51.702Z,75.04
2018-09-22T00:58:20.789Z,74.24
2018-09-22T01:00:49.835Z,74.33
2018-09-22T01:03:18.616Z,74.03
2018-09-22T01:05:47.861Z,74.93
2018-09-22T01:08:17.521Z,75.04
2018-09-22T01:10:46.709Z,75.51
2018-09-22T01:13:15.699Z,74.97
2018-09-22T01:15:44.687Z,74.97
2018-09-22T01:18:13.690Z,73.22
2018-09-22T01:20:42.597Z,73.25
2018-09-22T01:23:11.856Z,73.47
2018-09-22T01:25:40.795Z,73.74
2018-09-22T01:28:09.586Z,73.62
2018-09-22T01:30:38.919Z,73.47
2018-09-22T01:33:07.948Z,74.29
2018-09-22T01:35:36.979Z,73.93
2018-09-22T01:38:06.071Z,74.30
2018-09-22T01:40:35.159Z,74.55
2018-09-22T01:43:04.012Z,74.76
2018-09-22T01:45:33.034Z,74.52
2018-09-22T01:48:01.974Z,74.58
2018-09-22T01:50:30.881Z,75.35
2018-09-22T01:52:59.758Z,74.87
2018-09-22T01:55:28.711Z,74.25
2018-09-22T01:57:57.671Z,74.61
2018-09-22T02:00:27.522Z,74.61
2018-09-22T02:02:56.562Z,74.73
2018-09-22T02:05:25.363Z,74.56
2018-09-22T02:07:54.749Z,73.43
2018-09-22T02:10:23.658Z,73.13
2018-09-22T02:12:52.629Z,73.68
2018-09-22T02:15:21.669Z,73.38
2018-09-22T02:17:50.532Z,73.26
2018-09-22T02:20:19.638Z,72.90
2018-09-22T02:22:49.073Z,73.73
2018-09-22T02:25:17.902Z,74.71
2018-09-22T02:27:46.858Z,74.77
2018-09-22T02:30:15.873Z,74.24
2018-09-22T02:32:44.920Z,74.23
2018-09-22T02:35:13.891Z,73.94
2018-09-22T02:37:43.171Z,74.39
2018-09-22T02:40:11.974Z,74.55
2018-09-22T02:42:41.054Z,75.41
2018-09-22T02:45:10.479Z,75.57
2018-09-22T02:47:39.423Z,74.70
2018-09-22T02:50:08.326Z,76.73
2018-09-22T02:52:37.523Z,76.36
2018-09-22T02:55:06.551Z,75.34
2018-09-22T02:57:35.646Z,76.09
2018-09-22T03:00:05.017Z,75.43
2018-09-22T03:02:33.889Z,74.87
2018-09-22T03:05:02.928Z,75.07
2018-09-22T03:07:31.995Z,75.08
2018-09-22T03:10:00.997Z,75.49
2018-09-22T03:12:30.018Z,74.45
2018-09-22T03:14:59.179Z,74.82
2018-09-22T03:17:28.064Z,74.79
2018-09-22T03:19:56.928Z,75.37
2018-09-22T03:22:25.983Z,74.91
2018-09-22T03:24:55.014Z,74.92
2018-09-22T03:27:26.297Z,74.72
2018-09-22T03:29:55.247Z,75.61
2018-09-22T03:32:24.343Z,75.82
2018-09-22T03:34:53.725Z,75.80
2018-09-22T03:37:22.660Z,74.87
2018-09-22T03:39:51.772Z,75.16
2018-09-22T03:42:20.645Z,74.68
2018-09-22T03:44:49.659Z,74.78
2018-09-22T03:47:18.713Z,74.48
2018-09-22T03:49:48.333Z,75.16
2018-09-22T03:52:17.305Z,75.37
2018-09-22T03:54:46.386Z,74.77
2018-09-22T03:57:15.452Z,74.48
2018-09-22T03:59:44.437Z,74.17
2018-09-22T04:02:13.351Z,76.16
2018-09-22T04:04:42.814Z,76.62
2018-09-22T04:07:11.839Z,76.42
2018-09-22T04:09:41.792Z,76.43
2018-09-22T04:12:10.854Z,76.00
2018-09-22T04:14:39.833Z,76.06
2018-09-22T04:17:09.050Z,76.51
2018-09-22T04:19:38.630Z,76.05
2018-09-22T04:22:07.790Z,76.78
2018-09-22T04:24:36.739Z,76.29
2018-09-22T04:27:05.931Z,75.80
2018-09-22T04:29:34.962Z,75.74
2018-09-22T04:32:04.049Z,76.29
2018-09-22T04:34:33.097Z,76.33
2018-09-22T04:37:02.195Z,76.76
2018-09-22T04:39:31.059Z,75.63
2018-09-22T04:42:00.505Z,75.02
2018-09-22T04:44:29.391Z,75.53
2018-09-22T04:46:58.232Z,74.63
2018-09-22T04:49:27.765Z,73.22
2018-09-22T04:51:56.661Z,74.35
2018-09-22T04:54:25.595Z,74.29
2018-09-22T04:56:54.814Z,73.13
2018-09-22T04:59:23.890Z,73.40
2018-09-22T05:08:37.367Z,72.04
2018-09-22T05:11:06.513Z,71.56
2018-09-22T05:15:05.695Z,71.72
2018-09-22T05:17:34.741Z,70.83
2018-09-22T05:20:03.707Z,70.74
2018-09-22T05:22:33.099Z,71.09
2018-09-22T05:25:02.017Z,71.51
2018-09-22T05:27:31.349Z,70.11
2018-09-22T05:30:00.530Z,69.67
2018-09-22T05:32:29.524Z,70.03
2018-09-22T05:34:58.994Z,70.03
2018-09-22T05:37:28.142Z,70.26
2018-09-22T05:39:57.195Z,69.48
2018-09-22T05:42:27.130Z,69.00
2018-09-22T05:44:56.844Z,69.10
2018-09-22T05:47:25.833Z,68.99
2018-09-22T05:49:54.761Z,68.58
2018-09-22T05:52:23.627Z,68.49
2018-09-22T05:54:52.577Z,68.63
2018-09-22T05:57:21.679Z,68.98
2018-09-22T05:59:50.684Z,68.83
2018-09-22T06:02:19.937Z,69.22
2018-09-22T06:04:49.317Z,68.71
2018-09-22T06:07:18.281Z,68.37
2018-09-22T06:09:47.453Z,68.58
2018-09-22T06:12:16.865Z,68.48
2018-09-22T06:14:45.923Z,68.14
2018-09-22T06:17:16.411Z,67.20
2018-09-22T06:19:45.729Z,66.61
2018-09-22T06:22:16.052Z,66.64
2018-09-22T06:24:45.495Z,65.51
2018-09-22T06:27:14.459Z,65.36
2018-09-22T06:29:43.662Z,63.75
2018-09-22T06:32:13.221Z,64.69
2018-09-22T06:34:42.411Z,63.99
2018-09-22T06:37:11.545Z,64.03
2018-09-22T06:39:40.402Z,63.39
2018-09-22T06:43:38.808Z,65.09
2018-09-22T06:46:08.418Z,64.37
2018-09-22T06:48:37.575Z,63.86
2018-09-22T06:51:06.919Z,63.81
2018-09-22T06:53:35.857Z,63.20
2018-09-22T06:56:04.773Z,62.60
2018-09-22T06:58:33.687Z,61.74
2018-09-22T07:01:03.134Z,60.01
2018-09-22T07:03:32.018Z,61.24
2018-09-22T07:06:00.977Z,60.13
2018-09-22T07:08:29.894Z,59.62
2018-09-22T07:10:58.984Z,60.06
2018-09-22T07:13:27.984Z,58.22
2018-09-22T07:15:57.091Z,58.37
2018-09-22T07:18:26.113Z,57.97
2018-09-22T07:21:00.372Z,58.35
2018-09-22T07:23:29.274Z,58.43
2018-09-22T07:25:58.313Z,58.58
2018-09-22T07:28:27.701Z,57.63
2018-09-22T07:30:57.699Z,57.21
2018-09-22T07:34:55.995Z,56.92
2018-09-22T07:37:24.991Z,56.30
2018-09-22T07:39:55.415Z,55.85
2018-09-22T07:42:24.562Z,55.33
2018-09-22T07:44:53.556Z,55.02
2018-09-22T07:47:22.503Z,55.51
2018-09-22T07:49:51.931Z,55.16
2018-09-22T07:52:20.847Z,54.85
2018-09-22T07:54:49.755Z,54.76
2018-09-22T07:57:18.881Z,54.84
2018-09-22T07:59:47.906Z,54.60
2018-09-22T08:02:17.153Z,54.24
2018-09-22T08:04:46.493Z,53.89
2018-09-22T08:07:15.340Z,53.87
2018-09-22T08:09:44.306Z,53.19
2018-09-22T08:12:13.367Z,53.35
2018-09-22T08:14:42.408Z,52.68
2018-09-22T08:17:11.501Z,52.69
2018-09-22T08:19:40.866Z,52.78
2018-09-22T08:22:09.723Z,52.63
2018-09-22T08:24:38.701Z,51.65
2018-09-22T08:27:07.778Z,51.64
2018-09-22T08:29:36.764Z,51.98
2018-09-22T08:32:05.896Z,51.70
2018-09-22T08:34:35.337Z,52.36
2018-09-22T08:37:04.500Z,51.38
2018-09-22T08:39:33.450Z,50.88
2018-09-22T08:42:04.355Z,50.08
2018-09-22T08:44:33.453Z,49.91
2018-09-22T08:47:02.464Z,50.27
2018-09-22T08:49:31.835Z,50.60
2018-09-22T08:52:00.837Z,49.56
2018-09-22T08:54:29.772Z,49.16
2018-09-22T08:57:00.147Z,50.33
2018-09-22T08:59:29.080Z,49.16
2018-09-22T09:01:58.138Z,49.31
2018-09-22T09:04:27.849Z,50.58
2018-09-22T09:06:56.962Z,48.79
2018-09-22T09:09:26.094Z,48.42
2018-09-22T09:11:55.084Z,46.77
2018-09-22T09:14:23.930Z,47.17
2018-09-22T09:16:53.313Z,47.16
2018-09-22T09:19:22.398Z,46.04
2018-09-22T09:21:51.233Z,46.13
2018-09-22T09:24:20.204Z,46.66
2018-09-22T09:26:50.631Z,46.16
2018-09-22T09:29:19.551Z,45.90
2018-09-22T09:31:48.390Z,44.89
2018-09-22T09:34:17.326Z,45.37
2018-09-22T09:36:46.246Z,44.52
2018-09-22T09:39:15.075Z,44.84
2018-09-22T09:41:44.312Z,44.74
2018-09-22T09:44:13.265Z,44.26
2018-09-22T09:46:42.218Z,44.87
2018-09-22T09:49:11.679Z,44.54
2018-09-22T09:51:40.596Z,43.31
2018-09-22T09:54:09.368Z,43.28
2018-09-22T09:56:38.430Z,42.57
2018-09-22T09:59:07.414Z,42.49
2018-09-22T10:01:36.303Z,41.84
2018-09-22T10:04:05.594Z,42.19
2018-09-22T10:06:34.652Z,42.51
2018-09-22T10:09:04.088Z,41.55
2018-09-22T10:11:33.560Z,42.59
2018-09-22T10:14:02.695Z,41.84
2018-09-22T10:16:31.706Z,41.99
2018-09-22T10:19:01.788Z,41.11
2018-09-22T10:21:30.703Z,40.21
2018-09-22T10:23:59.662Z,40.96
2018-09-22T10:26:29.071Z,40.93
2018-09-22T10:28:58.111Z,39.94
2018-09-22T10:31:27.192Z,39.53
2018-09-22T10:33:56.632Z,40.18
2018-09-22T10:36:25.696Z,38.88
2018-09-22T10:38:54.630Z,39.21
2018-09-22T10:41:23.707Z,37.81
2018-09-22T10:43:52.814Z,37.68
2018-09-22T10:46:21.841Z,37.57
2018-09-22T10:48:51.777Z,37.66
2018-09-22T10:51:20.928Z,37.53
2018-09-22T10:53:49.897Z,38.02
2018-09-22T10:56:18.857Z,37.32
2018-09-22T10:58:47.901Z,38.42
2018-09-22T11:01:16.909Z,38.07
2018-09-22T11:03:46.469Z,36.55
2018-09-22T11:06:15.780Z,37.65
2018-09-22T11:08:44.677Z,37.52
2018-09-22T11:11:13.598Z,36.57
2018-09-22T11:13:42.381Z,37.88
2018-09-22T11:16:11.541Z,37.43
2018-09-22T11:18:40.886Z,36.67
2018-09-22T11:21:09.875Z,36.38
2018-09-22T11:23:42.741Z,35.54
2018-09-22T11:26:11.888Z,35.44
2018-09-22T11:28:40.936Z,35.78
2018-09-22T11:31:10.003Z,36.54
2018-09-22T11:33:38.849Z,36.57
2018-09-22T11:36:07.829Z,36.12
2018-09-22T11:38:37.487Z,36.00
2018-09-22T11:41:06.477Z,35.69
2018-09-22T11:43:35.342Z,34.82
2018-09-22T11:46:04.896Z,33.89
2018-09-22T11:48:33.810Z,33.72
2018-09-22T11:51:02.702Z,33.53
2018-09-22T11:53:32.023Z,33.75
2018-09-22T11:56:00.983Z,32.45
2018-09-22T11:58:30.144Z,31.66
2018-09-22T12:00:59.706Z,31.32
2018-09-22T12:03:28.519Z,32.06
2018-09-22T12:05:57.549Z,31.28
2018-09-22T12:08:26.569Z,31.81
2018-09-22T12:10:55.502Z,29.84
2018-09-22T12:13:24.597Z,31.02
2018-09-22T12:15:53.843Z,31.53
2018-09-22T12:18:23.061Z,30.53
2018-09-22T12:20:51.958Z,31.39
2018-09-22T12:23:21.092Z,29.92
2018-09-22T12:25:50.162Z,30.45
2018-09-22T12:28:19.073Z,30.47
2018-09-22T12:30:48.063Z,30.95
2018-09-22T12:33:17.168Z,31.16
2018-09-22T12:35:46.322Z,32.34
2018-09-22T12:38:15.529Z,32.24
2018-09-22T12:40:44.453Z,30.29
2018-09-22T12:43:13.540Z,31.00
2018-09-22T12:45:42.670Z,29.31
2018-09-22T12:48:11.596Z,29.92
2018-09-22T12:50:40.620Z,28.93
2018-09-22T12:53:10.001Z,28.74
2018-09-22T12:55:39.114Z,29.26
2018-09-22T12:58:08.082Z,28.06
2018-09-22T13:00:37.203Z,29.00
2018-09-22T13:03:06.319Z,28.35
2018-09-22T13:05:35.501Z,28.58
2018-09-22T13:08:04.567Z,28.15
2018-09-22T13:10:33.727Z,27.92
2018-09-22T13:13:02.631Z,26.93
2018-09-22T13:15:31.806Z,26.97
2018-09-22T13:18:00.928Z,26.10
2018-09-22T13:20:29.902Z,27.08
2018-09-22T13:22:59.366Z,26.37
2018-09-22T13:25:28.386Z,26.87
2018-09-22T13:27:57.467Z,27.72
2018-09-22T13:30:26.506Z,26.25
2018-09-22T13:32:55.551Z,27.41
2018-09-22T13:35:24.520Z,27.69
2018-09-22T13:37:53.767Z,26.25
2018-09-22T13:40:22.883Z,26.85
2018-09-22T13:42:51.911Z,26.32
2018-09-22T13:45:20.885Z,26.61
2018-09-22T13:47:49.884Z,27.38
2018-09-22T13:50:18.904Z,28.27
2018-09-22T13:52:48.296Z,28.77
2018-09-22T13:55:17.211Z,27.62
2018-09-22T13:57:46.053Z,27.94
2018-09-22T14:00:15.209Z,27.51
2018-09-22T14:02:44.471Z,27.53
2018-09-22T14:05:13.378Z,27.98
2018-09-22T14:07:42.908Z,28.54
2018-09-22T14:10:12.085Z,28.21
2018-09-22T14:12:42.242Z,27.64
2018-09-22T14:15:11.282Z,27.47
2018-09-22T14:17:40.491Z,27.77
2018-09-22T14:20:09.612Z,27.73
2018-09-22T14:22:38.671Z,28.39
2018-09-22T14:25:07.758Z,27.42
2018-09-22T14:27:36.863Z,28.40
2018-09-22T14:30:06.012Z,28.51
2018-09-22T14:32:35.161Z,28.17
2018-09-22T14:35:04.189Z,28.37
2018-09-22T14:37:33.239Z,28.48
2018-09-22T14:40:02.149Z,27.61
2018-09-22T14:42:31.373Z,27.75
2018-09-22T14:45:00.224Z,28.33
2018-09-22T14:47:29.273Z,27.94
2018-09-22T14:49:58.334Z,28.34
2018-09-22T14:52:27.311Z,28.10
2018-09-22T14:54:56.253Z,28.24
2018-09-22T14:57:25.577Z,27.92
2018-09-22T14:59:54.789Z,27.13
2018-09-22T15:02:23.814Z,28.24
2018-09-22T15:04:52.865Z,27.97
2018-09-22T15:07:21.886Z,27.82
2018-09-22T15:09:50.890Z,27.27
2018-09-22T15:12:20.265Z,27.42
2018-09-22T15:14:49.251Z,27.02
2018-09-22T15:17:18.471Z,27.79
2018-09-22T15:19:47.363Z,26.52
2018-09-22T15:22:16.222Z,26.65
2018-09-22T15:24:45.132Z,26.74
2018-09-22T15:27:14.392Z,27.07
2018-09-22T15:29:43.376Z,27.10
2018-09-22T15:32:12.563Z,27.25
2018-09-22T15:34:41.594Z,27.45
2018-09-22T15:37:10.584Z,28.66
2018-09-22T15:39:39.490Z,28.36
2018-09-22T15:42:08.868Z,28.12
2018-09-22T15:44:37.913Z,27.91
2018-09-22T15:47:07.286Z,28.53
2018-09-22T15:49:36.863Z,29.22
2018-09-22T15:52:05.944Z,29.42
2018-09-22T15:54:34.784Z,29.41
2018-09-22T15:57:04.003Z,29.26
2018-09-22T15:59:33.475Z,29.20
2018-09-22T16:02:02.346Z,28.31
2018-09-22T16:04:31.666Z,28.04
2018-09-22T16:07:00.763Z,28.57
